createdAt,value
2019-03-28T00:00:30.470Z,6.60
2019-03-28T00:01:35.505Z,4.87
2019-03-28T00:02:40.337Z,6.30
2019-03-28T00:03:45.188Z,4.40
2019-03-28T00:04:50.120Z,3.67
2019-03-28T00:05:54.861Z,5.22
2019-03-28T00:06:59.683Z,5.80
2019-03-28T00:08:04.545Z,7.00
2019-03-28T00:09:09.601Z,6.75
2019-03-28T00:10:14.433Z,8.68
2019-03-28T00:11:19.246Z,6.37
2019-03-28T00:12:24.041Z,6.05
2019-03-28T00:13:28.938Z,5.55
2019-03-28T00:14:33.738Z,5.03
2019-03-28T00:15:38.508Z,9.05
2019-03-28T00:16:43.337Z,7.53
2019-03-28T00:17:48.127Z,5.87
2019-03-28T00:18:53.223Z,10.90
2019-03-28T00:19:58.224Z,10.90
2019-03-28T00:21:02.987Z,5.50
2019-03-28T00:22:07.880Z,3.87
2019-03-28T00:23:27.153Z,9.08
2019-03-28T00:24:45.865Z,6.75
2019-03-28T00:25:50.807Z,5.40
2019-03-28T00:26:55.523Z,8.50
2019-03-28T00:28:00.345Z,5.92
2019-03-28T00:29:05.255Z,7.80
2019-03-28T00:30:10.193Z,5.28
2019-03-28T00:31:15.109Z,8.48
2019-03-28T00:32:20.089Z,6.42
2019-03-28T00:33:24.997Z,8.53
2019-03-28T00:34:29.894Z,7.78
2019-03-28T00:35:34.616Z,8.50
2019-03-28T00:36:39.323Z,8.05
2019-03-28T00:37:44.041Z,6.30
2019-03-28T00:38:48.831Z,6.60
2019-03-28T00:39:53.615Z,7.85
2019-03-28T00:40:58.427Z,6.10
2019-03-28T00:42:03.230Z,6.22
2019-03-28T00:43:08.013Z,5.45
2019-03-28T00:44:13.033Z,5.45
2019-03-28T00:45:18.084Z,5.95
2019-03-28T00:46:22.931Z,6.35
2019-03-28T00:47:27.620Z,6.95
2019-03-28T00:48:32.403Z,5.30
2019-03-28T00:49:37.173Z,8.90
2019-03-28T00:50:42.075Z,11.90
2019-03-28T00:51:46.978Z,7.50
2019-03-28T00:52:51.769Z,7.15
2019-03-28T00:53:56.684Z,5.80
2019-03-28T00:55:01.549Z,10.15
2019-03-28T00:56:06.586Z,11.85
2019-03-28T00:57:11.801Z,5.10
2019-03-28T00:58:16.487Z,6.80
2019-03-28T00:59:21.299Z,5.65
2019-03-28T01:00:26.282Z,5.70
2019-03-28T01:01:31.176Z,7.20
2019-03-28T01:02:35.913Z,6.62
2019-03-28T01:03:40.601Z,8.28
2019-03-28T01:04:45.327Z,4.95
2019-03-28T01:05:50.109Z,8.65
2019-03-28T01:06:55.001Z,5.40
2019-03-28T01:07:59.952Z,6.30
2019-03-28T01:09:06.351Z,7.42
2019-03-28T01:10:11.332Z,6.00
2019-03-28T01:11:16.256Z,5.10
2019-03-28T01:12:21.156Z,5.78
2019-03-28T01:13:25.901Z,5.87
2019-03-28T01:14:30.766Z,8.60
2019-03-28T01:15:35.653Z,5.47
2019-03-28T01:16:40.459Z,4.60
2019-03-28T01:17:45.286Z,6.33
2019-03-28T01:18:50.062Z,6.53
2019-03-28T01:19:55.173Z,7.78
2019-03-28T01:21:00.291Z,5.95
2019-03-28T01:22:05.077Z,5.37
2019-03-28T01:23:09.854Z,5.35
2019-03-28T01:24:14.769Z,8.15
2019-03-28T01:25:19.592Z,5.33
2019-03-28T01:26:24.432Z,7.78
2019-03-28T01:27:29.216Z,7.15
2019-03-28T01:28:34.093Z,6.05
2019-03-28T01:29:38.967Z,5.05
2019-03-28T01:30:43.710Z,5.70
2019-03-28T01:31:48.591Z,6.03
2019-03-28T01:32:53.478Z,7.85
2019-03-28T01:33:58.239Z,5.58
2019-03-28T01:35:03.012Z,5.58
2019-03-28T01:36:07.881Z,5.90
2019-03-28T01:37:12.775Z,8.25
2019-03-28T01:38:17.663Z,5.33
2019-03-28T01:39:22.463Z,7.30
2019-03-28T01:40:27.413Z,4.95
2019-03-28T01:41:32.297Z,7.10
2019-03-28T01:42:37.144Z,6.65
2019-03-28T01:43:42.062Z,5.00
2019-03-28T01:44:46.883Z,7.08
2019-03-28T01:45:51.599Z,5.10
2019-03-28T01:46:56.448Z,5.47
2019-03-28T01:48:01.290Z,5.10
2019-03-28T01:49:06.199Z,6.78
2019-03-28T01:50:11.042Z,6.90
2019-03-28T01:51:15.885Z,6.65
2019-03-28T01:52:21.353Z,10.03
2019-03-28T01:53:26.417Z,9.58
2019-03-28T01:54:31.129Z,7.80
2019-03-28T01:55:36.120Z,6.50
2019-03-28T01:56:41.011Z,5.87
2019-03-28T01:57:45.777Z,6.25
2019-03-28T01:58:50.528Z,8.68
2019-03-28T01:59:55.355Z,5.83
2019-03-28T02:01:02.778Z,6.12
2019-03-28T02:02:06.819Z,7.17
2019-03-28T02:03:11.613Z,6.90
2019-03-28T02:04:16.407Z,8.45
2019-03-28T02:05:21.247Z,6.40
2019-03-28T02:06:26.126Z,12.37
2019-03-28T02:07:31.069Z,7.25
2019-03-28T02:08:35.829Z,6.85
2019-03-28T02:09:40.765Z,9.95
2019-03-28T02:10:45.487Z,6.25
2019-03-28T02:11:50.447Z,8.55
2019-03-28T02:12:55.147Z,6.80
2019-03-28T02:13:59.964Z,6.65
2019-03-28T02:15:05.412Z,5.67
2019-03-28T02:16:10.305Z,5.90
2019-03-28T02:17:15.192Z,5.80
2019-03-28T02:18:19.911Z,7.20
2019-03-28T02:19:24.806Z,5.90
2019-03-28T02:20:29.636Z,6.40
2019-03-28T02:21:34.544Z,8.25
2019-03-28T02:22:39.270Z,5.78
2019-03-28T02:23:44.131Z,5.47
2019-03-28T02:24:49.005Z,6.47
2019-03-28T02:25:53.805Z,10.28
2019-03-28T02:26:59.132Z,9.43
2019-03-28T02:28:04.263Z,6.50
2019-03-28T02:29:09.031Z,7.33
2019-03-28T02:30:13.873Z,5.85
2019-03-28T02:31:18.689Z,5.60
2019-03-28T02:32:23.825Z,6.80
2019-03-28T02:33:28.591Z,6.58
2019-03-28T02:34:33.341Z,6.90
2019-03-28T02:35:38.220Z,7.92
2019-03-28T02:36:42.917Z,5.50
2019-03-28T02:37:47.828Z,5.25
2019-03-28T02:38:52.561Z,5.20
2019-03-28T02:39:57.423Z,4.65
2019-03-28T02:41:02.865Z,5.10
2019-03-28T02:42:07.720Z,5.75
2019-03-28T02:43:12.573Z,5.20
2019-03-28T02:44:17.376Z,7.72
2019-03-28T02:45:22.276Z,5.33
2019-03-28T02:46:27.191Z,8.43
2019-03-28T02:47:31.883Z,4.97
2019-03-28T02:48:36.870Z,4.35
2019-03-28T02:49:41.681Z,6.37
2019-03-28T02:50:46.340Z,6.70
2019-03-28T02:51:51.227Z,4.90
2019-03-28T02:52:55.939Z,5.60
2019-03-28T02:54:00.934Z,5.75
2019-03-28T02:55:06.157Z,5.17
2019-03-28T02:56:10.973Z,5.20
2019-03-28T02:57:15.730Z,4.85
2019-03-28T02:58:20.627Z,10.13
2019-03-28T02:59:25.476Z,6.12
2019-03-28T03:00:30.379Z,9.55
2019-03-28T03:01:35.133Z,5.10
2019-03-28T03:02:40.068Z,5.83
2019-03-28T03:03:44.980Z,6.78
2019-03-28T03:04:49.787Z,6.28
2019-03-28T03:05:54.568Z,6.37
2019-03-28T03:06:59.482Z,6.40
2019-03-28T03:08:04.538Z,8.13
2019-03-28T03:09:10.631Z,5.95
2019-03-28T03:10:15.509Z,5.95
2019-03-28T03:11:20.413Z,7.15
2019-03-28T03:12:25.381Z,4.87
2019-03-28T03:13:30.124Z,8.50
2019-03-28T03:14:34.985Z,6.97
2019-03-28T03:15:39.815Z,6.28
2019-03-28T03:16:44.663Z,6.30
2019-03-28T03:17:49.537Z,5.12
2019-03-28T03:18:54.449Z,7.80
2019-03-28T03:19:59.252Z,6.53
2019-03-28T03:21:04.302Z,6.72
2019-03-28T03:22:09.197Z,6.05
2019-03-28T03:23:14.162Z,6.83
2019-03-28T03:24:19.074Z,5.65
2019-03-28T03:25:23.858Z,6.40
2019-03-28T03:26:28.712Z,6.67
2019-03-28T03:27:33.552Z,5.45
2019-03-28T03:28:38.436Z,5.08
2019-03-28T03:29:43.330Z,7.15
2019-03-28T03:30:48.230Z,5.53
2019-03-28T03:31:53.840Z,6.72
2019-03-28T03:32:58.997Z,7.10
2019-03-28T03:34:05.094Z,8.15
2019-03-28T03:35:10.665Z,7.17
2019-03-28T03:36:15.489Z,5.08
2019-03-28T03:37:20.284Z,7.10
2019-03-28T03:38:24.996Z,5.00
2019-03-28T03:39:29.708Z,5.80
2019-03-28T03:40:34.648Z,4.92
2019-03-28T03:41:39.778Z,4.92
2019-03-28T03:42:44.580Z,5.10
2019-03-28T03:43:49.766Z,5.60
2019-03-28T03:44:54.760Z,5.10
2019-03-28T03:45:59.514Z,13.38
2019-03-28T03:47:04.273Z,4.90
2019-03-28T03:48:09.103Z,6.20
2019-03-28T03:49:13.849Z,7.33
2019-03-28T03:50:27.556Z,5.87
2019-03-28T03:51:32.291Z,6.92
2019-03-28T03:52:37.166Z,5.67
2019-03-28T03:53:42.146Z,6.00
2019-03-28T03:54:46.989Z,5.15
2019-03-28T03:55:51.799Z,6.80
2019-03-28T03:56:56.495Z,6.80
2019-03-28T03:58:14.401Z,7.58
2019-03-28T03:59:07.920Z,9.75
2019-03-28T04:00:14.523Z,5.70
2019-03-28T04:01:19.380Z,8.60
2019-03-28T04:02:24.133Z,8.90
2019-03-28T04:03:29.570Z,5.95
2019-03-28T04:04:34.693Z,5.83
2019-03-28T04:05:39.503Z,9.78
2019-03-28T04:06:44.248Z,7.17
2019-03-28T04:07:49.167Z,8.25
2019-03-28T04:08:54.123Z,7.55
2019-03-28T04:09:59.065Z,5.90
2019-03-28T04:11:03.892Z,9.48
2019-03-28T04:12:08.708Z,8.40
2019-03-28T04:13:13.545Z,9.00
2019-03-28T04:14:18.377Z,7.30
2019-03-28T04:15:23.282Z,5.45
2019-03-28T04:16:29.386Z,7.35
2019-03-28T04:17:34.752Z,8.63
2019-03-28T04:18:39.980Z,5.55
2019-03-28T04:19:45.029Z,6.53
2019-03-28T04:20:50.017Z,6.95
2019-03-28T04:21:54.936Z,6.83
2019-03-28T04:22:59.711Z,7.87
2019-03-28T04:24:04.501Z,5.05
2019-03-28T04:25:09.392Z,8.00
2019-03-28T04:26:14.227Z,7.47
2019-03-28T04:27:19.032Z,6.15
2019-03-28T04:28:31.478Z,5.70
2019-03-28T04:29:30.626Z,6.25
2019-03-28T04:30:35.717Z,6.08
2019-03-28T04:31:40.625Z,7.60
2019-03-28T04:32:45.373Z,7.50
2019-03-28T04:33:50.116Z,5.00
2019-03-28T04:34:54.936Z,6.30
2019-03-28T04:36:00.416Z,6.12
2019-03-28T04:37:05.360Z,5.92
2019-03-28T04:38:10.997Z,3.87
2019-03-28T04:39:16.540Z,6.03
2019-03-28T04:40:21.578Z,8.05
2019-03-28T04:41:26.467Z,5.87
2019-03-28T04:42:31.263Z,6.35
2019-03-28T04:43:36.245Z,10.35
2019-03-28T04:44:40.995Z,7.00
2019-03-28T04:45:45.660Z,5.65
2019-03-28T04:46:50.551Z,5.83
2019-03-28T04:47:55.241Z,7.50
2019-03-28T04:48:59.981Z,6.90
2019-03-28T04:50:04.749Z,7.75
2019-03-28T04:51:11.821Z,8.78
2019-03-28T04:52:16.235Z,5.17
2019-03-28T04:53:21.112Z,5.90
2019-03-28T04:54:25.919Z,6.90
2019-03-28T04:55:30.817Z,8.88
2019-03-28T04:56:35.527Z,8.00
2019-03-28T04:57:41.200Z,5.90
2019-03-28T04:58:46.254Z,6.15
2019-03-28T04:59:51.102Z,5.58
2019-03-28T05:00:55.992Z,6.97
2019-03-28T05:02:03.386Z,6.47
2019-03-28T05:03:07.412Z,4.75
2019-03-28T05:04:12.099Z,4.65
2019-03-28T05:05:17.076Z,5.00
2019-03-28T05:06:22.005Z,8.28
2019-03-28T05:07:27.137Z,6.55
2019-03-28T05:08:31.943Z,5.55
2019-03-28T05:09:36.748Z,6.85
2019-03-28T05:10:41.647Z,5.37
2019-03-28T05:11:46.727Z,7.10
2019-03-28T05:12:51.570Z,4.22
2019-03-28T05:13:56.601Z,8.25
2019-03-28T05:15:01.358Z,5.05
2019-03-28T05:16:06.041Z,6.67
2019-03-28T05:17:10.840Z,5.42
2019-03-28T05:18:15.741Z,7.53
2019-03-28T05:19:20.544Z,5.60
2019-03-28T05:20:25.344Z,7.05
2019-03-28T05:21:30.163Z,5.95
2019-03-28T05:22:35.002Z,7.00
2019-03-28T05:23:40.484Z,7.50
2019-03-28T05:24:45.405Z,7.33
2019-03-28T05:25:50.338Z,5.45
2019-03-28T05:26:55.203Z,5.60
2019-03-28T05:28:00.016Z,5.33
2019-03-28T05:29:04.711Z,6.47
2019-03-28T05:30:10.767Z,5.65
2019-03-28T05:31:15.641Z,5.85
2019-03-28T05:32:20.331Z,5.90
2019-03-28T05:33:25.310Z,7.95
2019-03-28T05:34:30.178Z,8.05
2019-03-28T05:35:34.993Z,6.80
2019-03-28T05:36:39.744Z,5.80
2019-03-28T05:37:44.533Z,5.80
2019-03-28T05:38:49.347Z,6.75
2019-03-28T05:39:54.187Z,6.17
2019-03-28T05:40:59.060Z,6.05
2019-03-28T05:42:04.037Z,6.35
2019-03-28T05:43:08.878Z,7.00
2019-03-28T05:44:13.682Z,8.23
2019-03-28T05:45:18.480Z,5.33
2019-03-28T05:46:23.208Z,8.18
2019-03-28T05:47:28.007Z,6.30
2019-03-28T05:48:32.705Z,5.80
2019-03-28T05:49:37.415Z,5.22
2019-03-28T05:50:42.108Z,6.83
2019-03-28T05:51:46.818Z,5.75
2019-03-28T05:52:51.552Z,7.22
2019-03-28T05:53:56.398Z,5.75
2019-03-28T05:55:01.556Z,9.28
2019-03-28T05:56:06.641Z,7.78
2019-03-28T05:57:11.483Z,7.80
2019-03-28T05:58:16.185Z,8.13
2019-03-28T05:59:20.847Z,8.50
2019-03-28T06:00:25.647Z,8.43
2019-03-28T06:01:30.390Z,9.45
2019-03-28T06:02:35.249Z,7.50
2019-03-28T06:03:40.091Z,7.22
2019-03-28T06:04:44.965Z,7.33
2019-03-28T06:05:49.775Z,7.78
2019-03-28T06:06:54.481Z,7.33
2019-03-28T06:07:59.329Z,6.75
2019-03-28T06:09:05.629Z,7.00
2019-03-28T06:10:10.985Z,13.40
2019-03-28T06:11:15.695Z,8.75
2019-03-28T06:12:20.634Z,9.28
2019-03-28T06:13:25.485Z,10.50
2019-03-28T06:14:30.254Z,11.30
2019-03-28T06:15:35.085Z,11.12
2019-03-28T06:16:39.969Z,11.05
2019-03-28T06:17:44.872Z,8.25
2019-03-28T06:18:49.671Z,10.80
2019-03-28T06:19:54.425Z,6.83
2019-03-28T06:20:59.611Z,10.08
2019-03-28T06:22:04.708Z,7.95
2019-03-28T06:23:09.553Z,6.60
2019-03-28T06:24:14.281Z,9.88
2019-03-28T06:25:19.154Z,8.48
2019-03-28T06:26:23.899Z,8.40
2019-03-28T06:27:28.671Z,11.80
2019-03-28T06:28:33.477Z,11.88
2019-03-28T06:29:38.360Z,7.20
2019-03-28T06:30:43.073Z,6.37
2019-03-28T06:31:55.070Z,6.50
2019-03-28T06:32:54.418Z,8.88
2019-03-28T06:33:59.291Z,6.58
2019-03-28T06:35:04.410Z,12.60
2019-03-28T06:36:09.153Z,6.30
2019-03-28T06:37:14.159Z,7.50
2019-03-28T06:38:19.071Z,8.93
2019-03-28T06:39:23.965Z,6.72
2019-03-28T06:40:28.738Z,6.85
2019-03-28T06:41:33.495Z,8.10
2019-03-28T06:42:38.338Z,8.50
2019-03-28T06:43:43.245Z,6.08
2019-03-28T06:44:48.037Z,6.40
2019-03-28T06:45:52.923Z,8.63
2019-03-28T06:46:57.761Z,8.63
2019-03-28T06:48:02.494Z,10.13
2019-03-28T06:49:07.425Z,8.40
2019-03-28T06:50:12.476Z,8.80
2019-03-28T06:51:17.354Z,7.75
2019-03-28T06:52:22.115Z,7.28
2019-03-28T06:53:26.992Z,5.80
2019-03-28T06:54:31.764Z,7.12
2019-03-28T06:55:37.112Z,7.22
2019-03-28T06:56:41.888Z,7.85
2019-03-28T06:57:46.767Z,7.97
2019-03-28T06:58:51.515Z,5.75
2019-03-28T06:59:56.431Z,5.47
2019-03-28T07:01:01.367Z,6.85
2019-03-28T07:02:06.139Z,7.03
2019-03-28T07:03:11.028Z,5.90
2019-03-28T07:04:15.787Z,5.60
2019-03-28T07:05:20.669Z,4.78
2019-03-28T07:06:25.423Z,7.22
2019-03-28T07:07:30.176Z,7.45
2019-03-28T07:08:35.093Z,5.55
2019-03-28T07:09:40.003Z,5.97
2019-03-28T07:10:44.717Z,7.00
2019-03-28T07:11:49.625Z,6.05
2019-03-28T07:12:54.401Z,6.03
2019-03-28T07:13:59.278Z,10.15
2019-03-28T07:15:04.428Z,10.80
2019-03-28T07:16:09.722Z,11.05
2019-03-28T07:17:14.629Z,6.28
2019-03-28T07:18:19.423Z,7.12
2019-03-28T07:19:24.128Z,7.22
2019-03-28T07:20:29.041Z,5.55
2019-03-28T07:21:33.943Z,7.92
2019-03-28T07:22:38.807Z,9.08
2019-03-28T07:23:43.734Z,6.20
2019-03-28T07:24:48.549Z,5.75
2019-03-28T07:25:53.229Z,7.72
2019-03-28T07:26:58.130Z,6.83
2019-03-28T07:28:06.148Z,9.20
2019-03-28T07:29:09.688Z,5.75
2019-03-28T07:30:15.335Z,6.80
2019-03-28T07:31:20.081Z,7.20
2019-03-28T07:32:24.920Z,6.47
2019-03-28T07:33:29.667Z,5.45
2019-03-28T07:34:34.433Z,9.03
2019-03-28T07:35:39.370Z,12.37
2019-03-28T07:36:44.111Z,5.58
2019-03-28T07:37:48.955Z,7.92
2019-03-28T07:38:53.824Z,8.80
2019-03-28T07:39:58.947Z,5.30
2019-03-28T07:41:03.946Z,6.45
2019-03-28T07:42:08.888Z,5.62
2019-03-28T07:43:13.803Z,6.85
2019-03-28T07:44:18.609Z,5.40
2019-03-28T07:45:23.518Z,5.25
2019-03-28T07:46:28.508Z,6.30
2019-03-28T07:47:33.419Z,5.92
2019-03-28T07:48:38.261Z,6.35
2019-03-28T07:49:43.116Z,5.35
2019-03-28T07:50:47.865Z,7.12
2019-03-28T07:51:52.689Z,6.20
2019-03-28T07:52:57.517Z,6.78
2019-03-28T07:54:02.615Z,5.67
2019-03-28T07:55:08.591Z,6.55
2019-03-28T07:56:13.379Z,4.60
2019-03-28T07:57:18.273Z,7.20
2019-03-28T07:58:23.048Z,8.75
2019-03-28T07:59:27.748Z,4.85
2019-03-28T08:00:32.557Z,5.72
2019-03-28T08:01:37.347Z,4.45
2019-03-28T08:02:42.093Z,6.87
2019-03-28T08:03:46.978Z,4.83
2019-03-28T08:04:51.876Z,5.80
2019-03-28T08:05:56.632Z,7.72
2019-03-28T08:07:01.418Z,5.80
2019-03-28T08:08:06.295Z,5.40
2019-03-28T08:09:11.759Z,6.03
2019-03-28T08:10:17.202Z,5.70
2019-03-28T08:11:21.985Z,6.83
2019-03-28T08:12:27.195Z,5.50
2019-03-28T08:13:32.013Z,5.05
2019-03-28T08:14:36.931Z,5.85
2019-03-28T08:15:41.683Z,5.78
2019-03-28T08:16:46.372Z,4.40
2019-03-28T08:17:51.159Z,3.60
2019-03-28T08:18:55.911Z,5.72
2019-03-28T08:20:00.855Z,7.00
2019-03-28T08:21:06.011Z,4.25
2019-03-28T08:22:10.761Z,8.60
2019-03-28T08:23:15.750Z,4.92
2019-03-28T08:24:20.461Z,5.15
2019-03-28T08:25:25.203Z,4.80
2019-03-28T08:26:30.511Z,6.78
2019-03-28T08:27:35.615Z,3.37
2019-03-28T08:28:40.394Z,5.95
2019-03-28T08:29:45.157Z,3.52
2019-03-28T08:30:50.030Z,3.08
2019-03-28T08:31:55.201Z,4.67
2019-03-28T08:33:00.514Z,5.20
2019-03-28T08:34:05.572Z,4.22
2019-03-28T08:35:10.788Z,5.95
2019-03-28T08:36:16.249Z,6.20
2019-03-28T08:37:21.181Z,5.03
2019-03-28T08:38:27.522Z,5.35
2019-03-28T08:39:32.262Z,3.65
2019-03-28T08:40:40.052Z,4.00
2019-03-28T08:41:44.953Z,3.42
2019-03-28T08:42:49.797Z,4.83
2019-03-28T08:43:54.694Z,3.45
2019-03-28T08:44:59.584Z,7.72
2019-03-28T08:46:04.659Z,5.67
2019-03-28T08:47:09.461Z,5.47
2019-03-28T08:48:14.157Z,7.15
2019-03-28T08:49:18.861Z,5.35
2019-03-28T08:50:23.823Z,4.30
2019-03-28T08:51:28.713Z,5.45
2019-03-28T08:52:33.615Z,6.97
2019-03-28T08:53:38.378Z,7.42
2019-03-28T08:54:43.372Z,5.22
2019-03-28T08:55:48.127Z,6.25
2019-03-28T08:56:52.859Z,3.47
2019-03-28T08:57:57.663Z,4.90
2019-03-28T08:59:02.479Z,5.10
2019-03-28T09:00:08.949Z,4.42
2019-03-28T09:01:13.836Z,4.05
2019-03-28T09:02:18.727Z,6.90
2019-03-28T09:03:23.585Z,3.12
2019-03-28T09:04:28.536Z,7.20
2019-03-28T09:05:33.266Z,4.35
2019-03-28T09:06:38.135Z,6.87
2019-03-28T09:07:42.940Z,3.98
2019-03-28T09:08:47.799Z,6.67
2019-03-28T09:09:52.634Z,8.00
2019-03-28T09:10:57.490Z,8.33
2019-03-28T09:12:02.422Z,6.95
2019-03-28T09:13:07.338Z,3.15
2019-03-28T09:14:12.246Z,4.25
2019-03-28T09:15:17.068Z,11.25
2019-03-28T09:16:21.918Z,5.47
2019-03-28T09:17:26.835Z,7.72
2019-03-28T09:18:31.531Z,7.70
2019-03-28T09:19:38.807Z,9.63
2019-03-28T09:20:42.829Z,5.75
2019-03-28T09:21:47.758Z,6.72
2019-03-28T09:22:52.677Z,6.50
2019-03-28T09:23:57.609Z,8.00
2019-03-28T09:25:02.707Z,7.03
2019-03-28T09:26:07.481Z,5.03
2019-03-28T09:27:12.358Z,6.95
2019-03-28T09:28:17.351Z,9.45
2019-03-28T09:29:22.175Z,8.83
2019-03-28T09:30:49.654Z,6.03
2019-03-28T09:31:51.833Z,5.45
2019-03-28T09:32:56.716Z,5.83
2019-03-28T09:34:01.661Z,6.78
2019-03-28T09:35:07.173Z,5.33
2019-03-28T09:36:12.104Z,9.98
2019-03-28T09:37:16.905Z,4.65
2019-03-28T09:38:21.774Z,7.75
2019-03-28T09:39:26.711Z,6.35
2019-03-28T09:40:31.487Z,8.33
2019-03-28T09:41:36.419Z,10.75
2019-03-28T09:42:41.371Z,9.00
2019-03-28T09:43:55.053Z,7.03
2019-03-28T09:44:52.842Z,8.08
2019-03-28T09:46:00.191Z,6.20
2019-03-28T09:47:04.353Z,6.78
2019-03-28T09:48:11.571Z,11.43
2019-03-28T09:49:15.730Z,7.67
2019-03-28T09:50:20.646Z,7.40
2019-03-28T09:51:25.683Z,8.48
2019-03-28T09:52:30.545Z,13.13
2019-03-28T09:53:35.385Z,7.00
2019-03-28T09:54:40.083Z,7.20
2019-03-28T09:55:45.090Z,8.08
2019-03-28T09:56:49.864Z,6.87
2019-03-28T09:57:54.603Z,5.85
2019-03-28T09:59:00.504Z,7.42
2019-03-28T10:00:06.274Z,9.18
2019-03-28T10:01:11.018Z,7.28
2019-03-28T10:02:15.959Z,7.22
2019-03-28T10:03:20.874Z,5.55
2019-03-28T10:04:25.767Z,11.63
2019-03-28T10:05:30.643Z,6.67
2019-03-28T10:06:35.664Z,10.58
2019-03-28T10:07:40.479Z,7.37
2019-03-28T10:08:45.434Z,7.67
2019-03-28T10:09:50.277Z,8.08
2019-03-28T10:10:55.277Z,5.62
2019-03-28T10:12:00.279Z,8.55
2019-03-28T10:13:05.251Z,7.05
2019-03-28T10:14:10.276Z,5.47
2019-03-28T10:15:15.227Z,6.62
2019-03-28T10:16:20.083Z,7.10
2019-03-28T10:17:24.834Z,8.73
2019-03-28T10:18:30.252Z,8.45
2019-03-28T10:19:35.224Z,5.70
2019-03-28T10:20:40.147Z,5.53
2019-03-28T10:21:44.899Z,8.58
2019-03-28T10:22:49.793Z,7.15
2019-03-28T10:23:54.661Z,8.75
2019-03-28T10:24:59.522Z,7.45
2019-03-28T10:26:04.477Z,10.10
2019-03-28T10:27:09.221Z,8.60
2019-03-28T10:28:13.963Z,6.75
2019-03-28T10:29:18.789Z,6.97
2019-03-28T10:30:38.377Z,5.62
2019-03-28T10:31:43.407Z,8.45
2019-03-28T10:32:48.201Z,7.92
2019-03-28T10:33:53.346Z,9.65
2019-03-28T10:34:58.360Z,7.45
2019-03-28T10:36:03.061Z,6.60
2019-03-28T10:37:07.937Z,4.90
2019-03-28T10:38:13.027Z,5.85
2019-03-28T10:39:17.974Z,4.92
2019-03-28T10:40:22.854Z,8.98
2019-03-28T10:41:28.767Z,8.08
2019-03-28T10:42:33.937Z,6.33
2019-03-28T10:43:38.744Z,3.52
2019-03-28T10:44:43.433Z,7.00
2019-03-28T10:45:48.222Z,10.35
2019-03-28T10:46:53.028Z,5.97
2019-03-28T10:47:57.936Z,4.62
2019-03-28T10:49:02.863Z,7.75
2019-03-28T10:50:07.959Z,6.03
2019-03-28T10:51:12.731Z,8.05
2019-03-28T10:52:17.653Z,9.43
2019-03-28T10:53:22.674Z,11.63
2019-03-28T10:54:27.570Z,8.55
2019-03-28T10:55:32.455Z,8.85
2019-03-28T10:56:50.699Z,6.75
2019-03-28T10:57:43.659Z,9.08
2019-03-28T10:58:48.639Z,7.80
2019-03-28T10:59:53.416Z,7.00
2019-03-28T11:00:58.307Z,5.05
2019-03-28T11:02:03.106Z,6.03
2019-03-28T11:03:07.915Z,5.40
2019-03-28T11:04:12.909Z,6.83
2019-03-28T11:05:17.813Z,7.75
2019-03-28T11:06:22.729Z,4.95
2019-03-28T11:07:27.614Z,9.30
2019-03-28T11:08:32.379Z,5.72
2019-03-28T11:09:37.153Z,3.83
2019-03-28T11:10:42.051Z,7.47
2019-03-28T11:11:46.879Z,9.73
2019-03-28T11:12:51.783Z,5.35
2019-03-28T11:13:56.633Z,6.80
2019-03-28T11:15:01.439Z,7.22
2019-03-28T11:16:06.149Z,9.75
2019-03-28T11:17:11.049Z,7.85
2019-03-28T11:18:15.949Z,9.78
2019-03-28T11:19:20.772Z,7.03
2019-03-28T11:20:25.703Z,7.40
2019-03-28T11:21:30.411Z,8.63
2019-03-28T11:22:35.358Z,4.97
2019-03-28T11:23:40.167Z,5.25
2019-03-28T11:24:46.417Z,5.83
2019-03-28T11:25:51.531Z,7.25
2019-03-28T11:26:56.258Z,7.45
2019-03-28T11:28:01.138Z,6.00
2019-03-28T11:29:06.022Z,7.55
2019-03-28T11:30:11.691Z,3.92
2019-03-28T11:31:17.658Z,3.90
2019-03-28T11:32:22.645Z,3.62
2019-03-28T11:33:27.515Z,3.25
2019-03-28T11:34:32.407Z,2.45
2019-03-28T11:35:37.237Z,2.08
2019-03-28T11:36:42.058Z,2.80
2019-03-28T11:37:47.047Z,2.15
2019-03-28T11:38:52.132Z,2.58
2019-03-28T11:39:56.929Z,2.33
2019-03-28T11:41:01.933Z,2.87
2019-03-28T11:42:06.713Z,2.20
2019-03-28T11:43:11.772Z,2.62
2019-03-28T11:44:16.681Z,2.80
2019-03-28T11:45:21.663Z,5.45
2019-03-28T11:46:26.503Z,6.85
2019-03-28T11:47:31.321Z,9.65
2019-03-28T11:48:36.186Z,9.50
2019-03-28T11:49:40.920Z,7.20
2019-03-28T11:50:45.977Z,5.67
2019-03-28T11:51:50.859Z,3.60
2019-03-28T11:52:55.777Z,6.25
2019-03-28T11:54:00.478Z,4.35
2019-03-28T11:55:07.092Z,4.12
2019-03-28T11:56:12.023Z,3.87
2019-03-28T11:57:16.935Z,3.35
2019-03-28T11:58:21.705Z,2.67
2019-03-28T11:59:26.672Z,3.62
2019-03-28T12:00:31.513Z,4.15
2019-03-28T12:01:36.232Z,3.25
2019-03-28T12:02:41.294Z,3.30
2019-03-28T12:03:47.012Z,4.75
2019-03-28T12:04:51.967Z,5.05
2019-03-28T12:05:56.715Z,5.67
2019-03-28T12:07:01.610Z,5.95
2019-03-28T12:08:06.541Z,3.12
2019-03-28T12:09:12.240Z,4.15
2019-03-28T12:10:17.330Z,3.42
2019-03-28T12:11:22.235Z,5.30
2019-03-28T12:12:27.025Z,5.60
2019-03-28T12:13:44.102Z,11.50
2019-03-28T12:14:38.174Z,7.70
2019-03-28T12:15:43.010Z,6.25
2019-03-28T12:16:47.997Z,4.50
2019-03-28T12:17:52.864Z,7.03
2019-03-28T12:18:57.665Z,5.87
2019-03-28T12:20:02.573Z,6.53
2019-03-28T12:21:07.338Z,3.58
2019-03-28T12:22:12.262Z,4.55
2019-03-28T12:23:17.161Z,3.42
2019-03-28T12:24:22.355Z,3.75
2019-03-28T12:25:27.276Z,2.50
2019-03-28T12:26:31.997Z,4.92
2019-03-28T12:27:36.772Z,3.17
2019-03-28T12:28:41.686Z,4.67
2019-03-28T12:29:46.585Z,3.85
2019-03-28T12:30:51.464Z,4.42
2019-03-28T12:31:56.299Z,6.85
2019-03-28T12:33:01.255Z,5.30
2019-03-28T12:34:06.148Z,3.50
2019-03-28T12:35:11.110Z,5.45
2019-03-28T12:36:15.995Z,4.75
2019-03-28T12:37:20.670Z,2.98
2019-03-28T12:38:25.455Z,5.05
2019-03-28T12:39:30.199Z,3.55
2019-03-28T12:40:34.895Z,4.03
2019-03-28T12:41:39.675Z,3.92
2019-03-28T12:42:44.474Z,4.92
2019-03-28T12:43:49.614Z,3.08
2019-03-28T12:44:57.364Z,4.00
2019-03-28T12:46:00.984Z,1.70
2019-03-28T12:47:05.819Z,2.90
2019-03-28T12:48:10.755Z,2.30
2019-03-28T12:49:15.673Z,3.67
2019-03-28T12:50:20.852Z,3.20
2019-03-28T12:51:26.518Z,3.47
2019-03-28T12:52:31.679Z,2.10
2019-03-28T12:53:36.688Z,2.90
2019-03-28T12:54:44.096Z,3.70
2019-03-28T12:55:48.113Z,3.45
2019-03-28T12:56:52.937Z,2.65
2019-03-28T12:57:57.755Z,1.90
2019-03-28T12:59:02.513Z,2.33
2019-03-28T13:00:09.265Z,1.35
2019-03-28T13:01:14.015Z,2.20
2019-03-28T13:02:28.587Z,1.90
2019-03-28T13:03:25.416Z,3.10
2019-03-28T13:04:30.249Z,2.90
2019-03-28T13:05:35.252Z,3.80
2019-03-28T13:06:40.161Z,2.30
2019-03-28T13:07:45.099Z,3.58
2019-03-28T13:08:50.008Z,3.10
2019-03-28T13:09:54.785Z,4.00
2019-03-28T13:10:59.650Z,3.47
2019-03-28T13:12:04.657Z,2.55
2019-03-28T13:13:09.515Z,3.15
2019-03-28T13:14:14.345Z,3.00
2019-03-28T13:15:19.262Z,2.40
2019-03-28T13:16:24.177Z,2.95
2019-03-28T13:17:28.936Z,2.08
2019-03-28T13:18:36.057Z,1.95
2019-03-28T13:19:40.336Z,6.47
2019-03-28T13:20:45.049Z,3.08
2019-03-28T13:21:49.949Z,2.35
2019-03-28T13:22:54.691Z,4.30
2019-03-28T13:23:59.535Z,2.15
2019-03-28T13:25:04.777Z,2.30
2019-03-28T13:26:09.598Z,5.42
2019-03-28T13:27:14.504Z,3.20
2019-03-28T13:28:19.421Z,2.67
2019-03-28T13:29:24.247Z,3.02
2019-03-28T13:30:29.046Z,3.45
2019-03-28T13:31:33.775Z,2.20
2019-03-28T13:32:42.109Z,2.90
2019-03-28T13:33:45.321Z,4.08
2019-03-28T13:34:50.114Z,2.70
2019-03-28T13:35:55.055Z,2.40
2019-03-28T13:36:59.927Z,3.50
2019-03-28T13:38:04.735Z,3.52
2019-03-28T13:39:09.807Z,2.40
2019-03-28T13:40:14.905Z,2.85
2019-03-28T13:41:19.697Z,2.70
2019-03-28T13:42:24.468Z,2.95
2019-03-28T13:43:29.419Z,2.70
2019-03-28T13:44:34.963Z,2.83
2019-03-28T13:45:40.424Z,3.70
2019-03-28T13:46:45.326Z,3.25
2019-03-28T13:47:53.876Z,2.17
2019-03-28T13:48:56.662Z,3.10
2019-03-28T13:50:01.435Z,2.62
2019-03-28T13:51:06.182Z,5.30
2019-03-28T13:52:11.004Z,2.62
2019-03-28T13:53:15.901Z,2.92
2019-03-28T13:54:23.230Z,2.77
2019-03-28T13:55:27.305Z,2.55
2019-03-28T13:56:32.055Z,2.40
2019-03-28T13:57:36.800Z,3.58
2019-03-28T13:58:41.712Z,3.70
2019-03-28T13:59:46.579Z,3.55
2019-03-28T14:00:54.277Z,3.40
2019-03-28T14:01:57.898Z,4.08
2019-03-28T14:03:02.905Z,3.35
2019-03-28T14:04:07.805Z,3.50
2019-03-28T14:05:13.143Z,3.05
2019-03-28T14:06:18.230Z,2.00
2019-03-28T14:07:23.208Z,5.80
2019-03-28T14:08:28.294Z,3.30
2019-03-28T14:09:33.031Z,3.75
2019-03-28T14:10:37.955Z,3.25
2019-03-28T14:11:42.783Z,4.35
2019-03-28T14:12:47.675Z,3.98
2019-03-28T14:13:52.603Z,6.12
2019-03-28T14:14:57.435Z,55.38
2019-03-28T14:16:02.150Z,74.32
2019-03-28T14:17:07.000Z,53.17
2019-03-28T14:18:11.977Z,67.90
2019-03-28T14:19:16.883Z,64.70
2019-03-28T14:20:22.410Z,42.48
2019-03-28T14:21:27.261Z,16.75
2019-03-28T14:22:31.983Z,10.95
2019-03-28T14:23:37.073Z,10.65